Time;durP1;ratioP1;P1;durP2;ratioP2;P2;SDS_P1;SDS_P2;PMS_P1;PMS_P2;Temp;Humidity;BMP_temperature;BMP_pressure;BME280_temperature;BME280_humidity;BME280_pressure;Samples;Min_cycle;Max_cycle;Signal;HPM_P1;HPM_P2
2021/04/19 00:04:21;;;;;;;34.00;20.75;;;;;;;6.26;77.17;98877.45;239805;1196;24720;-77
2021/04/19 00:09:24;;;;;;;33.80;20.10;;;;;;;6.25;77.76;98873.18;239661;1195;23106;-76
2021/04/19 00:14:27;;;;;;;31.50;19.67;;;;;;;6.20;77.68;98870.52;239676;1196;23116;-77
2021/04/19 00:19:29;;;;;;;33.03;18.27;;;;;;;6.15;77.19;98867.81;239480;1196;23096;-77
2021/04/19 00:24:32;;;;;;;36.13;19.40;;;;;;;6.13;77.38;98861.96;239786;1196;23259;-77
2021/04/19 00:29:36;;;;;;;32.97;20.23;;;;;;;6.10;77.78;98863.27;239445;1199;23093;-77
2021/04/19 00:34:38;;;;;;;34.65;19.30;;;;;;;6.10;77.32;98859.78;239522;1196;23137;-76
2021/04/19 00:39:42;;;;;;;35.87;20.27;;;;;;;6.02;77.68;98863.75;239453;1196;23269;-76
2021/04/19 00:44:46;;;;;;;34.25;21.25;;;;;;;6.02;77.67;98863.75;239391;1196;25699;-77
2021/04/19 00:49:49;;;;;;;35.80;20.23;;;;;;;6.04;77.79;98863.48;239324;1199;23136;-77
2021/04/19 00:54:51;;;;;;;36.47;21.20;;;;;;;6.04;77.99;98858.95;239361;1196;23112;-77
2021/04/19 01:00:14;;;;;;;38.20;21.47;;;;;;;5.97;77.63;98858.35;239729;1196;23135;-77
2021/04/19 01:05:40;;;;;;;35.63;20.97;;;;;;;5.91;77.38;98860.17;239546;1196;23292;-77
2021/04/19 01:10:44;;;;;;;38.90;22.13;;;;;;;5.89;78.17;98864.14;239777;1199;23218;-77
2021/04/19 01:15:47;;;;;;;37.70;22.60;;;;;;;5.92;78.54;98863.66;239531;1196;26210;-76
2021/04/19 01:20:52;;;;;;;36.45;19.90;;;;;;;5.87;78.10;98859.08;239375;1196;23111;-76
2021/04/19 01:25:58;;;;;;;34.63;19.90;;;;;;;5.80;78.69;98861.16;239743;1196;23112;-77
2021/04/19 01:31:21;;;;;;;34.90;20.57;;;;;;;5.71;78.37;98858.17;239654;1195;23174;-77
2021/04/19 01:36:25;;;;;;;35.07;19.70;;;;;;;5.67;78.54;98857.08;239571;1196;27172;-77
2021/04/19 01:41:30;;;;;;;36.25;20.35;;;;;;;5.61;78.90;98861.55;239547;1196;23263;-77
2021/04/19 01:46:33;;;;;;;34.57;20.27;;;;;;;5.61;79.32;98848.27;239512;1196;23138;-77
2021/04/19 01:51:36;;;;;;;39.73;20.93;;;;;;;5.60;79.19;98848.52;239560;1196;23111;-77
2021/04/19 01:56:40;;;;;;;35.63;20.40;;;;;;;5.54;79.08;98846.86;239631;1196;23103;-77
2021/04/19 02:01:58;;;;;;;35.00;20.70;;;;;;;5.49;79.45;98848.42;239748;1196;23240;-76
2021/04/19 02:07:31;;;;;;;37.38;21.05;;;;;;;5.45;79.45;98846.53;239711;1196;23134;-76
2021/04/19 02:12:47;;;;;;;31.85;19.90;;;;;;;5.48;80.28;98846.02;239886;1196;23237;-77
2021/04/19 02:18:11;;;;;;;33.90;19.60;;;;;;;5.50;80.16;98849.23;239559;1196;23142;-77
2021/04/19 02:23:18;;;;;;;38.67;23.47;;;;;;;5.43;79.66;98851.31;239769;1195;23119;-76
2021/04/19 02:28:47;;;;;;;41.40;24.00;;;;;;;5.38;79.83;98851.25;239637;1197;23103;-76
2021/04/19 02:33:54;;;;;;;38.77;23.93;;;;;;;5.40;80.18;98843.81;239527;1196;27326;-76
2021/04/19 02:38:59;;;;;;;41.37;22.80;;;;;;;5.44;80.29;98836.95;239643;1196;23110;-76
2021/04/19 02:44:04;;;;;;;33.53;20.47;;;;;;;5.49;80.65;98834.34;239345;1196;23117;-76
2021/04/19 02:49:30;;;;;;;34.80;20.73;;;;;;;5.55;80.91;98835.98;239385;1199;23247;-76
2021/04/19 02:54:39;;;;;;;35.23;21.10;;;;;;;5.62;80.74;98830.45;239639;1196;23262;-76
2021/04/19 02:59:45;;;;;;;35.27;19.23;;;;;;;5.72;80.81;98824.41;239736;1196;23114;-77
2021/04/19 03:04:48;;;;;;;38.25;21.40;;;;;;;5.75;80.95;98831.88;239818;1196;25975;-77
2021/04/19 03:09:58;;;;;;;37.20;21.00;;;;;;;5.78;80.64;98829.52;239408;1199;26054;-77
2021/04/19 03:15:08;;;;;;;37.47;22.00;;;;;;;5.81;81.12;98831.66;239527;1196;23200;-77
2021/04/19 03:20:21;;;;;;;33.55;20.50;;;;;;;5.84;80.97;98827.70;239524;1196;23083;-76
2021/04/19 03:25:42;;;;;;;30.50;19.73;;;;;;;5.84;80.95;98822.38;239633;1199;23096;-78
2021/04/19 03:30:45;;;;;;;36.07;20.70;;;;;;;5.85;80.66;98828.48;239661;1199;23112;-77
2021/04/19 03:35:50;;;;;;;30.33;19.20;;;;;;;5.91;81.33;98817.63;239772;1196;23266;-77
2021/04/19 03:40:56;;;;;;;27.60;17.73;;;;;;;6.03;81.16;98824.64;239738;1196;23112;-77
2021/04/19 03:46:05;;;;;;;29.73;18.93;;;;;;;5.99;81.07;98822.50;239848;1199;23109;-77
2021/04/19 03:51:26;;;;;;;29.50;17.67;;;;;;;5.90;80.49;98816.02;239474;1196;23119;-77
2021/04/19 03:56:33;;;;;;;30.33;18.37;;;;;;;5.86;80.96;98806.16;239473;1196;23124;-77
2021/04/19 04:01:42;;;;;;;28.83;18.30;;;;;;;5.86;80.72;98812.27;239958;1196;23279;-77
2021/04/19 04:06:47;;;;;;;28.03;18.23;;;;;;;5.89;81.27;98808.31;239649;1196;23112;-77
2021/04/19 04:11:50;;;;;;;31.30;18.87;;;;;;;5.88;81.14;98799.54;239691;1197;23134;-77
2021/04/19 04:17:04;;;;;;;29.60;17.37;;;;;;;5.94;81.29;98806.48;239382;1196;23286;-77
2021/04/19 04:22:40;;;;;;;26.47;16.77;;;;;;;5.95;80.85;98810.75;239525;1196;23125;-77
2021/04/19 04:27:43;;;;;;;30.20;17.30;;;;;;;5.91;81.14;98808.87;239536;1196;26693;-76
2021/04/19 04:32:47;;;;;;;25.97;16.83;;;;;;;5.96;81.37;98799.06;239216;1196;23269;-76
2021/04/19 04:37:57;;;;;;;29.63;16.53;;;;;;;6.03;81.23;98792.73;239418;1196;23105;-77
2021/04/19 04:43:19;;;;;;;30.17;17.47;;;;;;;6.06;81.80;98786.89;239504;1196;26028;-77
2021/04/19 04:48:34;;;;;;;27.90;16.30;;;;;;;6.06;81.09;98803.67;239603;1199;23099;-76
2021/04/19 04:53:43;;;;;;;33.57;18.80;;;;;;;6.09;81.26;98799.70;239608;1196;23546;-77
2021/04/19 04:58:51;;;;;;;32.50;17.63;;;;;;;6.12;81.40;98807.16;239766;1198;23111;-78
2021/04/19 05:03:55;;;;;;;30.75;18.15;;;;;;;6.20;81.89;98804.01;239906;1199;23254;-77
2021/04/19 05:09:00;;;;;;;24.97;15.17;;;;;;;6.27;81.24;98809.10;239592;1196;23102;-77
2021/04/19 05:14:03;;;;;;;30.70;18.20;;;;;;;6.28;81.45;98806.18;239559;1196;25990;-77
2021/04/19 05:19:06;;;;;;;32.05;18.70;;;;;;;6.33;82.01;98794.75;239570;1196;23118;-76
2021/04/19 05:24:10;;;;;;;32.95;19.10;;;;;;;6.40;82.08;98791.86;239577;1196;27398;-78
2021/04/19 05:29:14;;;;;;;32.97;19.60;;;;;;;6.45;81.92;98795.34;239475;1196;23151;-78
2021/04/19 05:34:16;;;;;;;38.07;19.97;;;;;;;6.49;82.06;98780.45;239400;1196;23116;-77
2021/04/19 05:39:21;;;;;;;34.27;19.60;;;;;;;6.58;81.98;98785.27;239777;1196;23115;-77
2021/04/19 05:44:25;;;;;;;36.97;21.00;;;;;;;6.63;81.73;98779.94;239440;1196;27393;-76
2021/04/19 05:49:28;;;;;;;37.80;21.80;;;;;;;6.63;82.22;98779.94;239321;1196;23111;-77
2021/04/19 05:54:33;;;;;;;34.85;21.05;;;;;;;6.70;82.05;98777.83;239612;1194;23134;-77
2021/04/19 05:59:59;;;;;;;38.35;21.40;;;;;;;6.79;81.79;98778.92;239693;1196;23099;-78
2021/04/19 06:05:07;;;;;;;37.25;22.85;;;;;;;6.92;82.01;98782.15;239762;1196;23109;-77
2021/04/19 06:10:14;;;;;;;35.65;20.60;;;;;;;7.01;82.39;98793.90;239485;1196;23180;-75
2021/04/19 06:15:25;;;;;;;35.00;20.25;;;;;;;6.99;81.62;98783.48;239777;1196;23263;-76
2021/04/19 06:20:29;;;;;;;37.33;22.80;;;;;;;7.07;81.90;98784.05;240184;1196;23087;-78
2021/04/19 06:25:35;;;;;;;36.45;22.40;;;;;;;7.16;82.03;98793.09;239921;1196;23086;-77
2021/04/19 06:30:41;;;;;;;34.10;21.93;;;;;;;7.17;81.89;98779.50;239490;1196;23141;-78
2021/04/19 06:35:47;;;;;;;35.83;22.23;;;;;;;7.18;82.05;98799.77;239728;1196;23118;-78
2021/04/19 06:40:50;;;;;;;34.60;21.37;;;;;;;7.27;81.91;98797.36;239823;1196;27311;-77
2021/04/19 06:45:53;;;;;;;41.67;25.23;;;;;;;7.36;82.70;98805.66;239678;1195;23829;-78
2021/04/19 06:50:56;;;;;;;39.43;24.73;;;;;;;7.36;82.06;98821.64;240412;1196;26399;-77
2021/04/19 06:55:59;;;;;;;42.35;24.00;;;;;;;7.36;82.15;98840.30;239928;1196;23114;-78
2021/04/19 07:01:03;;;;;;;50.33;29.57;;;;;;;7.36;82.51;98846.42;239987;1196;23134;-78
2021/04/19 07:06:07;;;;;;;48.60;28.90;;;;;;;7.37;82.63;98828.55;240231;1196;23125;-78
2021/04/19 07:11:12;;;;;;;54.90;29.13;;;;;;;7.43;82.97;98837.34;239842;1196;23136;-78
2021/04/19 07:16:16;;;;;;;41.95;27.75;;;;;;;7.47;83.33;98839.23;239660;1196;23572;-78
2021/04/19 07:21:20;;;;;;;40.80;26.50;;;;;;;7.46;83.46;98834.97;239932;1196;27304;-78
2021/04/19 07:26:23;;;;;;;46.70;27.80;;;;;;;7.46;83.51;98834.17;239747;1196;23117;-77
2021/04/19 07:31:26;;;;;;;45.50;26.40;;;;;;;7.41;83.48;98842.95;239796;1196;23250;-78
2021/04/19 07:36:32;;;;;;;42.67;26.80;;;;;;;7.35;83.95;98838.69;239734;1195;23138;-77
2021/04/19 07:41:56;;;;;;;44.40;27.30;;;;;;;7.40;83.98;98830.70;240156;1196;23979;-78
2021/04/19 07:47:43;;;;;;;42.13;27.17;;;;;;;7.50;83.98;98841.36;239583;1199;26236;-77
2021/04/19 07:53:08;;;;;;;34.15;21.50;;;;;;;7.57;84.24;98840.28;240147;1196;23124;-77
2021/04/19 07:58:23;;;;;;;42.93;25.20;;;;;;;7.63;84.16;98834.70;239873;1196;23903;-77
2021/04/19 08:03:39;;;;;;;43.77;27.30;;;;;;;7.78;84.82;98827.74;239861;1196;23118;-78
2021/04/19 08:08:42;;;;;;;45.15;28.40;;;;;;;7.91;85.35;98829.09;239630;1196;25975;-78
2021/04/19 08:13:46;;;;;;;45.40;27.00;;;;;;;8.05;85.03;98814.90;240067;1196;24907;-77
2021/04/19 08:18:49;;;;;;;46.10;26.80;;;;;;;8.14;85.59;98817.84;239789;1196;23131;-77
2021/04/19 08:23:53;;;;;;;42.10;27.27;;;;;;;8.19;85.30;98809.01;240188;1195;23250;-78
2021/04/19 08:28:55;;;;;;;42.17;23.60;;;;;;;8.12;85.06;98787.16;240146;1195;23202;-77
2021/04/19 08:33:58;;;;;;;42.85;27.20;;;;;;;8.13;85.30;98778.05;240435;1196;22961;-76
2021/04/19 08:39:01;;;;;;;44.50;27.20;;;;;;;8.42;86.06;98780.09;240052;1196;23950;-76
2021/04/19 08:44:04;;;;;;;53.60;33.25;;;;;;;8.75;85.48;98788.52;240347;1195;23135;-76
2021/04/19 08:49:09;;;;;;;52.63;33.53;;;;;;;9.21;86.50;98791.69;240506;1196;23105;-76
2021/04/19 08:54:12;;;;;;;44.03;26.80;;;;;;;9.52;84.72;98777.28;240614;1196;23115;-76
2021/04/19 08:59:15;;;;;;;40.85;26.00;;;;;;;9.74;84.99;98777.61;240322;1196;25875;-76
2021/04/19 09:04:25;;;;;;;37.90;24.35;;;;;;;9.92;83.78;98786.80;240329;1196;23106;-76
2021/04/19 09:09:32;;;;;;;37.40;22.80;;;;;;;9.98;83.36;98776.84;240341;1196;23118;-76
2021/04/19 09:14:37;;;;;;;34.80;23.35;;;;;;;10.17;83.69;98776.91;239952;1196;23253;-77
2021/04/19 09:19:40;;;;;;;30.23;21.10;;;;;;;10.27;82.76;98775.99;240518;1195;23256;-76
2021/04/19 09:25:11;;;;;;;32.60;19.20;;;;;;;9.99;81.42;98773.09;240457;1195;23186;-76
2021/04/19 09:30:27;;;;;;;28.93;18.90;;;;;;;9.89;82.39;98789.23;240305;1197;23135;-76
2021/04/19 09:35:42;;;;;;;25.95;16.55;;;;;;;9.77;81.45;98770.90;240208;1196;23112;-76
2021/04/19 09:40:56;;;;;;;26.65;17.55;;;;;;;9.97;82.34;98775.23;240666;1196;23123;-76
2021/04/19 09:46:06;;;;;;;26.27;18.10;;;;;;;10.47;82.95;98772.28;240353;1196;23158;-77
2021/04/19 09:51:17;;;;;;;21.80;14.73;;;;;;;11.02;81.97;98768.33;240332;1196;23275;-75
2021/04/19 09:56:26;;;;;;;19.95;14.50;;;;;;;11.35;81.19;98776.41;240519;1196;23098;-76
2021/04/19 10:01:30;;;;;;;19.47;14.10;;;;;;;11.43;80.26;98770.34;240210;1196;23116;-74
2021/04/19 10:06:44;;;;;;;19.70;13.20;;;;;;;11.37;78.67;98772.32;240530;1196;23105;-79
2021/04/19 10:11:55;;;;;;;21.87;14.37;;;;;;;11.12;77.92;98770.84;241108;1196;23115;-77
2021/04/19 10:16:57;;;;;;;18.75;13.25;;;;;;;10.81;78.06;98768.61;240194;1196;23202;-77
2021/04/19 10:22:05;;;;;;;20.47;14.40;;;;;;;10.51;78.16;98759.91;240413;1196;28281;-78
2021/04/19 10:27:08;;;;;;;22.40;15.30;;;;;;;10.38;78.58;98764.10;240284;1196;23098;-76
2021/04/19 10:32:11;;;;;;;20.97;15.77;;;;;;;10.10;78.37;98763.86;240190;1196;23173;-77
2021/04/19 10:37:17;;;;;;;24.15;17.25;;;;;;;9.97;78.89;98763.74;240210;1196;23141;-76
2021/04/19 10:42:27;;;;;;;23.80;18.10;;;;;;;9.89;79.18;98759.80;239986;1196;23244;-76
2021/04/19 10:47:32;;;;;;;22.28;15.68;;;;;;;9.89;79.20;98765.97;240057;1196;23240;-76
2021/04/19 10:52:35;;;;;;;24.63;17.80;;;;;;;9.81;79.52;98765.77;240224;1196;23225;-77
2021/04/19 10:57:38;;;;;;;28.60;19.55;;;;;;;9.73;79.51;98764.52;240318;1196;24574;-77
2021/04/19 11:02:41;;;;;;;30.85;22.40;;;;;;;9.63;79.28;98765.41;240116;1196;23201;-75
2021/04/19 11:07:44;;;;;;;31.27;21.17;;;;;;;9.56;80.25;98754.25;240078;1196;23170;-77
2021/04/19 11:12:55;;;;;;;60.77;34.77;;;;;;;9.52;79.97;98759.35;240049;1195;23115;-76
2021/04/19 11:17:57;;;;;;;;;;;;;;;9.56;80.24;98756.92;240250;1201;23344;-75
2021/04/19 11:23:00;;;;;;;34.55;21.75;;;;;;;9.62;80.32;98757.67;240432;1196;21671;-75
2021/04/19 11:28:17;;;;;;;34.90;22.05;;;;;;;9.67;80.38;98749.61;239654;1196;23172;-76
2021/04/19 11:33:28;;;;;;;33.30;22.55;;;;;;;9.79;80.71;98758.02;239577;1196;23201;-76
2021/04/19 11:38:31;;;;;;;31.30;21.20;;;;;;;9.96;80.61;98752.25;240303;1196;23120;-75
2021/04/19 11:43:46;;;;;;;30.00;20.90;;;;;;;9.98;80.21;98743.94;240218;1196;26268;-79
2021/04/19 11:48:51;;;;;;;31.57;21.70;;;;;;;9.98;80.19;98742.05;239554;1196;23935;-78
2021/04/19 11:53:54;;;;;;;31.60;20.17;;;;;;;10.01;80.19;98743.36;239719;1196;26144;-77
2021/04/19 11:58:57;;;;;;;36.00;24.05;;;;;;;10.18;80.47;98727.62;239713;1196;23164;-77
2021/04/19 12:04:03;;;;;;;31.35;20.55;;;;;;;10.46;80.50;98725.16;239435;1199;23134;-77
2021/04/19 12:09:06;;;;;;;33.53;21.93;;;;;;;10.79;80.65;98730.61;239671;1199;26010;-77
2021/04/19 12:14:10;;;;;;;32.80;23.05;;;;;;;11.01;79.92;98716.61;239466;1196;23122;-77
2021/04/19 12:19:13;;;;;;;30.93;21.40;;;;;;;11.35;79.59;98720.88;239474;1196;23111;-76
2021/04/19 12:24:16;;;;;;;33.25;22.95;;;;;;;11.82;79.46;98718.14;239617;1196;23098;-76
2021/04/19 12:29:19;;;;;;;31.60;22.27;;;;;;;12.12;78.56;98708.73;239613;1199;28227;-76
2021/04/19 12:34:21;;;;;;;33.40;23.65;;;;;;;12.14;77.61;98717.30;240077;1196;23271;-80
2021/04/19 12:39:24;;;;;;;33.87;22.80;;;;;;;12.09;77.92;98701.28;241312;1196;23099;-79
2021/04/19 12:44:27;;;;;;;32.97;24.13;;;;;;;12.31;77.90;98694.38;240950;1196;23219;-79
2021/04/19 12:49:30;;;;;;;27.30;19.10;;;;;;;12.65;77.65;98682.36;240399;1196;23091;-79
2021/04/19 12:54:33;;;;;;;34.87;23.70;;;;;;;12.86;77.15;98687.24;240667;1196;23167;-79
2021/04/19 12:59:39;;;;;;;34.00;24.10;;;;;;;13.03;76.93;98676.62;240695;1196;23230;-79
2021/04/19 13:04:41;;;;;;;32.30;22.60;;;;;;;13.22;75.56;98678.30;241399;1196;23102;-80
2021/04/19 13:09:44;;;;;;;27.95;20.65;;;;;;;13.43;75.27;98675.91;241159;1195;23099;-79
2021/04/19 13:14:46;;;;;;;31.00;23.50;;;;;;;13.47;74.70;98680.38;240853;1195;23128;-79
2021/04/19 13:19:50;;;;;;;31.10;23.23;;;;;;;13.39;73.48;98681.13;240980;1196;23121;-79
2021/04/19 13:24:53;;;;;;;30.30;21.50;;;;;;;13.10;73.16;98671.59;241084;1196;23137;-79
2021/04/19 13:29:57;;;;;;;30.60;23.90;;;;;;;13.02;74.20;98666.95;242135;1196;23116;-79
2021/04/19 13:34:59;;;;;;;33.15;24.80;;;;;;;13.09;74.63;98661.94;241756;1196;23087;-78
2021/04/19 13:40:02;;;;;;;35.00;26.10;;;;;;;13.13;74.55;98649.46;241233;1194;23146;-79
2021/04/19 13:45:09;;;;;;;32.15;22.75;;;;;;;13.23;74.68;98644.94;241570;1196;23149;-79
2021/04/19 13:50:13;;;;;;;32.30;24.20;;;;;;;13.29;73.67;98644.50;241875;1196;23115;-76
2021/04/19 13:55:17;;;;;;;33.40;25.30;;;;;;;13.41;74.13;98648.53;239449;1196;23105;-76
2021/04/19 14:00:21;;;;;;;32.73;22.20;;;;;;;13.32;72.52;98643.88;239578;1196;23115;-76
2021/04/19 14:05:23;;;;;;;35.10;25.10;;;;;;;13.27;73.10;98646.69;239873;1196;23176;-76
2021/04/19 14:10:26;;;;;;;33.50;25.50;;;;;;;13.38;73.52;98646.47;239782;1196;23149;-74
2021/04/19 14:15:31;;;;;;;30.80;23.95;;;;;;;13.49;73.75;98634.33;239425;1196;26176;-75
2021/04/19 14:20:34;;;;;;;36.90;27.30;;;;;;;13.49;73.42;98632.42;239371;1195;23245;-75
2021/04/19 14:25:37;;;;;;;35.05;25.95;;;;;;;13.43;73.19;98635.55;239538;1196;23133;-75
2021/04/19 14:30:40;;;;;;;29.05;21.70;;;;;;;13.29;72.59;98628.36;239590;1196;23198;-75
2021/04/19 14:35:44;;;;;;;31.50;24.65;;;;;;;13.15;72.26;98623.06;239506;1196;23130;-76
2021/04/19 14:40:46;;;;;;;36.00;26.00;;;;;;;13.07;73.18;98613.05;239561;1199;23132;-75
2021/04/19 14:45:50;;;;;;;34.30;25.35;;;;;;;13.23;73.68;98609.97;239456;1196;23116;-75
2021/04/19 14:50:54;;;;;;;34.93;23.90;;;;;;;13.32;72.85;98605.43;239359;1196;23139;-75
2021/04/19 14:55:56;;;;;;;34.77;25.33;;;;;;;13.30;72.60;98610.31;239384;1199;23128;-75
2021/04/19 15:01:00;;;;;;;31.00;24.30;;;;;;;13.24;72.29;98601.58;239391;1195;23129;-75
2021/04/19 15:06:03;;;;;;;33.70;22.80;;;;;;;13.24;73.52;98612.34;239490;1196;23173;-75
2021/04/19 15:11:06;;;;;;;32.60;24.55;;;;;;;13.29;72.93;98595.27;239458;1196;23125;-75
2021/04/19 15:16:08;;;;;;;32.50;24.67;;;;;;;13.24;72.46;98606.97;239484;1196;23104;-75
2021/04/19 15:21:12;;;;;;;35.70;24.53;;;;;;;13.12;72.22;98606.74;239596;1196;23256;-74
2021/04/19 15:26:16;;;;;;;31.90;22.50;;;;;;;13.02;72.57;98599.73;239542;1196;23131;-75
2021/04/19 15:31:18;;;;;;;36.40;26.30;;;;;;;12.91;72.80;98590.34;239360;1196;23144;-74
2021/04/19 15:36:22;;;;;;;36.27;26.03;;;;;;;12.88;73.12;98599.03;239189;1196;23307;-75
2021/04/19 15:41:27;;;;;;;36.80;25.30;;;;;;;12.86;73.39;98598.53;239542;1196;23128;-75
2021/04/19 15:46:29;;;;;;;32.40;23.47;;;;;;;12.75;72.80;98596.11;239588;1196;23244;-75
2021/04/19 15:51:33;;;;;;;27.83;21.90;;;;;;;12.74;72.97;98594.52;239178;1196;23135;-75
2021/04/19 15:56:38;;;;;;;35.13;25.10;;;;;;;12.74;72.53;98597.20;239501;1196;23174;-74
2021/04/19 16:01:41;;;;;;;37.17;26.27;;;;;;;12.76;73.22;98595.02;239487;1196;23140;-76
2021/04/19 16:06:43;;;;;;;31.33;22.13;;;;;;;12.80;72.94;98593.30;239281;1199;23115;-76
2021/04/19 16:11:47;;;;;;;33.33;24.63;;;;;;;12.83;72.96;98600.75;239511;1196;23215;-74
2021/04/19 16:16:50;;;;;;;33.87;24.33;;;;;;;12.81;73.14;98594.08;239238;1199;23111;-75
2021/04/19 16:21:53;;;;;;;35.00;25.55;;;;;;;12.69;73.01;98589.28;239378;1199;23283;-76
2021/04/19 16:26:55;;;;;;;33.90;24.15;;;;;;;12.56;73.28;98585.54;239487;1196;23129;-75
2021/04/19 16:31:59;;;;;;;34.50;25.30;;;;;;;12.43;72.96;98579.13;239438;1197;23228;-75
2021/04/19 16:37:03;;;;;;;34.03;24.50;;;;;;;12.33;73.35;98577.48;239422;1196;23250;-76
2021/04/19 16:42:07;;;;;;;35.05;22.40;;;;;;;12.25;73.52;98580.11;239294;1196;23489;-76
2021/04/19 16:47:10;;;;;;;33.55;23.30;;;;;;;12.21;73.99;98579.91;239415;1196;23118;-75
2021/04/19 16:52:12;;;;;;;33.30;24.17;;;;;;;12.23;74.61;98583.09;239345;1196;23110;-75
2021/04/19 16:57:17;;;;;;;33.65;25.00;;;;;;;12.11;74.22;98580.94;239263;1199;23800;-75
2021/04/19 17:02:20;;;;;;;33.20;23.10;;;;;;;11.93;74.31;98585.34;239660;1196;23126;-75
2021/04/19 17:07:22;;;;;;;32.55;23.35;;;;;;;11.74;74.61;98592.73;239543;1195;23208;-75
2021/04/19 17:12:25;;;;;;;35.90;23.95;;;;;;;11.52;74.87;98580.81;239530;1196;23295;-76
2021/04/19 17:17:32;;;;;;;36.50;24.30;;;;;;;11.25;75.36;98571.68;239366;1196;23567;-75
2021/04/19 17:22:36;;;;;;;34.33;23.53;;;;;;;11.00;75.68;98575.63;239443;1196;23119;-74
2021/04/19 17:27:45;;;;;;;35.37;23.77;;;;;;;10.83;76.10;98586.92;239374;1196;23220;-75
2021/04/19 17:32:49;;;;;;;35.70;25.70;;;;;;;10.67;76.61;98582.90;239536;1195;26061;-75
2021/04/19 17:37:54;;;;;;;43.30;28.30;;;;;;;10.48;76.89;98586.41;239609;1196;23123;-76
2021/04/19 17:42:56;;;;;;;46.13;27.57;;;;;;;10.28;77.35;98582.94;239460;1196;23118;-75
2021/04/19 17:48:00;;;;;;;45.85;29.70;;;;;;;10.10;77.56;98584.53;239453;1196;23279;-74
2021/04/19 17:53:04;;;;;;;41.90;28.00;;;;;;;9.94;78.00;98589.28;239610;1196;23109;-74
2021/04/19 17:58:08;;;;;;;43.00;28.90;;;;;;;9.80;78.48;98590.30;239494;1196;23088;-75
2021/04/19 18:03:10;;;;;;;49.63;30.93;;;;;;;9.70;78.91;98604.59;239762;1195;25981;-75
2021/04/19 18:08:13;;;;;;;46.20;30.57;;;;;;;9.59;79.28;98599.35;239417;1196;23130;-75
2021/04/19 18:13:16;;;;;;;56.23;33.80;;;;;;;9.51;79.47;98608.00;239353;1196;23181;-74
2021/04/19 18:18:19;;;;;;;56.70;37.37;;;;;;;9.37;79.79;98599.90;239494;1199;23125;-75
2021/04/19 18:23:41;;;;;;;50.67;33.50;;;;;;;9.24;80.36;98600.56;239480;1199;23126;-74
2021/04/19 18:28:45;;;;;;;53.20;33.87;;;;;;;9.10;80.34;98608.45;239520;1197;23191;-76
2021/04/19 18:33:48;;;;;;;48.30;30.77;;;;;;;9.00;80.50;98609.34;239808;1196;23143;-75
2021/04/19 18:38:51;;;;;;;51.20;32.00;;;;;;;8.92;80.46;98617.97;239434;1196;23115;-75
2021/04/19 18:43:54;;;;;;;48.10;32.40;;;;;;;8.86;80.75;98614.55;239031;1196;23119;-73
2021/04/19 18:48:57;;;;;;;55.33;34.57;;;;;;;8.86;81.59;98630.57;239385;1196;23115;-74
2021/04/19 18:54:02;;;;;;;50.70;32.20;;;;;;;8.79;81.52;98629.31;239410;1199;23129;-75
2021/04/19 18:59:05;;;;;;;51.93;33.07;;;;;;;8.87;82.17;98626.02;239622;1196;26020;-75
2021/04/19 19:04:10;;;;;;;43.50;29.27;;;;;;;8.99;82.64;98622.98;239458;1199;23111;-74
2021/04/19 19:09:12;;;;;;;51.60;31.90;;;;;;;9.14;82.26;98632.75;239744;1196;23102;-75
2021/04/19 19:14:15;;;;;;;45.27;29.83;;;;;;;9.25;82.19;98644.93;239400;1196;23129;-75
2021/04/19 19:19:17;;;;;;;55.60;35.93;;;;;;;9.32;82.30;98641.92;239417;1196;23147;-75
2021/04/19 19:24:25;;;;;;;50.80;33.50;;;;;;;9.37;82.56;98648.02;239623;1199;23222;-75
2021/04/19 19:29:27;;;;;;;53.90;34.25;;;;;;;9.42;82.41;98641.81;239414;1196;23138;-75
2021/04/19 19:34:29;;;;;;;56.57;35.83;;;;;;;9.50;82.81;98648.40;239310;1196;23257;-76
2021/04/19 19:39:32;;;;;;;55.83;36.83;;;;;;;9.60;82.78;98659.00;239414;1196;23167;-75
2021/04/19 19:44:35;;;;;;;60.65;38.55;;;;;;;9.70;82.95;98642.05;239489;1199;23115;-75
2021/04/19 19:49:38;;;;;;;68.03;44.07;;;;;;;9.75;82.60;98648.13;239177;1196;23128;-75
2021/04/19 19:54:41;;;;;;;71.50;45.10;;;;;;;9.79;82.22;98647.55;239524;1196;23116;-75
2021/04/19 19:59:44;;;;;;;75.80;46.43;;;;;;;9.85;82.70;98633.02;239503;1196;23123;-74
2021/04/19 20:04:46;;;;;;;69.27;44.53;;;;;;;9.84;82.17;98615.39;239358;1199;23208;-74
2021/04/19 20:09:49;;;;;;;79.80;47.83;;;;;;;9.76;81.96;98625.66;239280;1199;23128;-75
2021/04/19 20:14:52;;;;;;;80.07;48.07;;;;;;;9.78;82.31;98635.25;239396;1196;23127;-75
2021/04/19 20:19:55;;;;;;;76.55;46.30;;;;;;;9.79;82.34;98624.27;239426;1196;23112;-75
2021/04/19 20:24:58;;;;;;;75.83;46.20;;;;;;;9.80;82.16;98625.86;239630;1196;23348;-75
2021/04/19 20:30:04;;;;;;;65.50;41.05;;;;;;;9.80;81.91;98622.41;239635;1196;23115;-74
2021/04/19 20:35:07;;;;;;;71.47;41.87;;;;;;;9.70;81.63;98613.41;239534;1199;26214;-75
2021/04/19 20:40:12;;;;;;;80.20;47.37;;;;;;;9.64;81.45;98619.09;239554;1196;23107;-74
2021/04/19 20:45:15;;;;;;;102.10;56.57;;;;;;;9.56;81.85;98618.65;239563;1196;23074;-74
2021/04/19 20:50:20;;;;;;;87.70;50.33;;;;;;;9.42;81.30;98604.38;239506;1196;23132;-75
2021/04/19 20:55:25;;;;;;;80.50;44.80;;;;;;;9.20;81.08;98611.01;239486;1196;23387;-74
2021/04/19 21:00:28;;;;;;;77.90;43.05;;;;;;;9.01;81.43;98600.26;239386;1196;23129;-75
2021/04/19 21:05:32;;;;;;;70.60;43.67;;;;;;;8.88;81.61;98598.23;239425;1196;23151;-74
2021/04/19 21:10:35;;;;;;;71.83;42.97;;;;;;;8.69;81.75;98601.60;239487;1196;23117;-74
2021/04/19 21:15:37;;;;;;;71.90;41.65;;;;;;;8.53;81.85;98589.45;239301;1199;23131;-76
2021/04/19 21:20:40;;;;;;;75.95;42.15;;;;;;;8.37;82.16;98594.87;239039;1196;23258;-75
2021/04/19 21:25:45;;;;;;;60.40;37.67;;;;;;;8.23;82.32;98593.91;239419;1196;23564;-75
2021/04/19 21:30:48;;;;;;;67.37;42.13;;;;;;;8.05;82.36;98582.01;239630;1196;23128;-75
2021/04/19 21:35:51;;;;;;;72.07;43.70;;;;;;;7.95;82.79;98579.41;239367;1196;23103;-75
2021/04/19 21:40:59;;;;;;;62.10;40.00;;;;;;;7.83;83.07;98582.39;239458;1196;23111;-75
2021/04/19 21:46:01;;;;;;;68.80;43.15;;;;;;;7.71;83.01;98580.06;239557;1196;23218;-74
2021/04/19 21:51:06;;;;;;;69.95;42.10;;;;;;;7.62;83.48;98590.48;239535;1196;23130;-75
2021/04/19 21:56:09;;;;;;;73.77;45.10;;;;;;;7.55;83.71;98584.64;239268;1196;23141;-74
2021/04/19 22:01:11;;;;;;;72.20;42.30;;;;;;;7.47;83.39;98577.20;239202;1196;23084;-74
2021/04/19 22:06:14;;;;;;;73.25;43.20;;;;;;;7.43;83.62;98576.16;239482;1196;23207;-75
2021/04/19 22:11:17;;;;;;;69.90;45.10;;;;;;;7.37;83.88;98575.38;239569;1196;26399;-75
2021/04/19 22:16:21;;;;;;;63.00;38.80;;;;;;;7.35;83.84;98569.53;239145;1196;23253;-75
2021/04/19 22:21:24;;;;;;;69.63;39.30;;;;;;;7.33;84.09;98569.81;239427;1199;23117;-75
2021/04/19 22:26:26;;;;;;;65.60;38.35;;;;;;;7.34;84.17;98573.27;239441;1196;23115;-74
2021/04/19 22:31:29;;;;;;;60.50;37.03;;;;;;;7.34;84.29;98571.41;239429;1196;23122;-75
2021/04/19 22:36:33;;;;;;;56.30;35.50;;;;;;;7.39;84.27;98572.44;239458;1196;23121;-75
2021/04/19 22:41:35;;;;;;;59.73;37.50;;;;;;;7.38;83.44;98566.33;239351;1196;23111;-75
2021/04/19 22:46:39;;;;;;;62.30;36.15;;;;;;;7.33;83.88;98561.00;239255;1196;23572;-74
2021/04/19 22:51:42;;;;;;;56.80;34.80;;;;;;;7.28;83.69;98566.37;239510;1196;24900;-74
2021/04/19 22:56:45;;;;;;;54.77;34.00;;;;;;;7.28;83.77;98561.03;239527;1196;23144;-74
2021/04/19 23:01:48;;;;;;;48.33;32.00;;;;;;;7.28;83.68;98563.70;239091;1196;23571;-74
2021/04/19 23:06:51;;;;;;;50.67;29.87;;;;;;;7.25;83.29;98566.91;239017;1196;23170;-74
2021/04/19 23:11:56;;;;;;;48.00;30.00;;;;;;;7.21;83.17;98561.32;239133;1196;23131;-74
2021/04/19 23:16:59;;;;;;;48.40;29.27;;;;;;;7.22;83.51;98560.26;239092;1199;23201;-75
2021/04/19 23:22:03;;;;;;;44.40;30.13;;;;;;;7.25;83.31;98562.38;239153;1196;23116;-76